createdAt,value
2022-08-10T00:00:58.668Z,101378.98
2022-08-10T00:03:42.212Z,101375.59
2022-08-10T00:06:10.514Z,101375.80
2022-08-10T00:08:39.306Z,101377.30
2022-08-10T00:11:16.825Z,101377.70
2022-08-10T00:13:53.330Z,101376.48
2022-08-10T00:16:41.989Z,101376.27
2022-08-10T00:19:19.469Z,101376.37
2022-08-10T00:21:49.753Z,101378.01
2022-08-10T00:24:25.339Z,101378.73
2022-08-10T00:27:52.712Z,101373.80
2022-08-10T00:30:00.214Z,101368.77
2022-08-10T00:32:38.145Z,101367.19
2022-08-10T00:35:16.242Z,101370.57
2022-08-10T00:38:04.314Z,101369.25
2022-08-10T00:40:47.670Z,101368.46
2022-08-10T00:43:23.579Z,101370.98
2022-08-10T00:46:09.923Z,101370.31
2022-08-10T00:48:46.713Z,101366.98
2022-08-10T00:51:40.353Z,101371.48
2022-08-10T00:54:26.890Z,101371.66
2022-08-10T00:57:16.021Z,101371.23
2022-08-10T01:00:00.460Z,101371.92
2022-08-10T01:02:33.039Z,101371.21
2022-08-10T01:05:19.953Z,101375.55
2022-08-10T01:08:15.849Z,101377.95
2022-08-10T01:12:37.893Z,101373.41
2022-08-10T01:14:18.844Z,101376.16
2022-08-10T01:17:10.052Z,101375.44
2022-08-10T01:20:09.498Z,101374.33
2022-08-10T01:23:10.868Z,101375.80
2022-08-10T01:26:11.531Z,101374.27
2022-08-10T01:29:11.527Z,101380.91
2022-08-10T01:31:53.732Z,101380.20
2022-08-10T01:34:49.194Z,101380.52
2022-08-10T01:37:40.592Z,101381.29
2022-08-10T01:40:16.818Z,101380.63
2022-08-10T01:42:50.583Z,101382.92
2022-08-10T01:45:28.315Z,101388.25
2022-08-10T01:48:26.217Z,101383.96
2022-08-10T01:51:03.231Z,101383.94
2022-08-10T01:53:42.792Z,101381.39
2022-08-10T01:56:22.955Z,101383.46
2022-08-10T01:59:14.297Z,101381.09
2022-08-10T02:01:47.842Z,101384.90
2022-08-10T02:04:25.936Z,101382.14
2022-08-10T02:07:02.382Z,101382.84
2022-08-10T02:09:48.194Z,101381.88
2022-08-10T02:12:29.086Z,101384.27
2022-08-10T02:15:04.255Z,101384.92
2022-08-10T02:17:57.988Z,101385.02
2022-08-10T02:20:51.397Z,101382.20
2022-08-10T02:23:42.997Z,101383.01
2022-08-10T02:26:13.142Z,101387.42
2022-08-10T02:28:42.092Z,101390.70
2022-08-10T02:31:39.332Z,101389.87
2022-08-10T02:34:18.152Z,101391.36
2022-08-10T02:37:03.720Z,101387.94
2022-08-10T02:39:47.896Z,101390.29
2022-08-10T02:45:29.743Z,101390.73
2022-08-10T02:45:46.291Z,101393.39
2022-08-10T02:48:21.433Z,101397.08
2022-08-10T02:51:04.003Z,101397.90
2022-08-10T02:53:58.866Z,101397.66
2022-08-10T02:56:39.580Z,101399.60
2022-08-10T02:59:39.741Z,101398.13
2022-08-10T03:02:23.933Z,101394.69
2022-08-10T03:05:17.234Z,101402.42
2022-08-10T03:08:21.655Z,101402.25
2022-08-10T03:10:57.932Z,101397.16
2022-08-10T03:13:47.091Z,101400.34
2022-08-10T03:16:37.830Z,101398.77
2022-08-10T03:19:08.363Z,101400.30
2022-08-10T03:22:03.540Z,101403.15
2022-08-10T03:24:41.682Z,101402.64
2022-08-10T03:27:25.347Z,101397.69
2022-08-10T03:30:32.942Z,101401.44
2022-08-10T03:33:08.544Z,101396.28
2022-08-10T03:35:42.380Z,101397.81
2022-08-10T03:38:35.860Z,101403.34
2022-08-10T03:41:35.754Z,101405.90
2022-08-10T03:44:21.674Z,101406.08
2022-08-10T03:47:16.297Z,101410.05
2022-08-10T03:49:55.538Z,101410.98
2022-08-10T03:52:31.504Z,101410.16
2022-08-10T03:55:09.040Z,101412.06
2022-08-10T03:58:06.366Z,101417.11
2022-08-10T04:00:36.323Z,101418.74
2022-08-10T04:03:17.447Z,101421.08
2022-08-10T04:06:01.169Z,101420.05
2022-08-10T04:08:39.298Z,101421.52
2022-08-10T04:11:18.940Z,101425.19
2022-08-10T04:13:55.519Z,101424.39
2022-08-10T04:16:32.416Z,101422.27
2022-08-10T04:19:01.685Z,101430.42
2022-08-10T04:21:44.410Z,101436.42
2022-08-10T04:24:26.907Z,101432.08
2022-08-10T04:27:05.332Z,101432.67
2022-08-10T04:29:33.506Z,101432.86
2022-08-10T04:32:27.345Z,101436.07
2022-08-10T04:35:09.743Z,101436.64
2022-08-10T04:37:49.432Z,101437.15
2022-08-10T04:40:29.351Z,101435.20
2022-08-10T04:43:12.959Z,101440.73
2022-08-10T04:45:51.708Z,101444.12
2022-08-10T04:48:41.510Z,101439.56
2022-08-10T04:51:28.370Z,101441.20
2022-08-10T04:54:07.096Z,101447.08
2022-08-10T04:56:43.364Z,101448.27
2022-08-10T04:59:22.574Z,101451.38
2022-08-10T05:02:22.035Z,101451.26
2022-08-10T05:04:56.481Z,101452.88
2022-08-10T05:07:24.018Z,101451.17
2022-08-10T05:10:01.383Z,101457.84
2022-08-10T05:12:40.573Z,101461.08
2022-08-10T05:15:13.948Z,101457.36
2022-08-10T05:18:04.714Z,101459.46
2022-08-10T05:20:39.783Z,101460.73
2022-08-10T05:23:10.944Z,101460.69
2022-08-10T05:25:44.241Z,101457.34
2022-08-10T05:28:34.132Z,101457.27
2022-08-10T05:31:06.612Z,101459.90
2022-08-10T05:33:48.929Z,101457.86
2022-08-10T05:36:28.575Z,101462.31
2022-08-10T05:39:05.516Z,101463.27
2022-08-10T05:41:47.760Z,101465.23
2022-08-10T05:44:35.107Z,101467.27
2022-08-10T05:47:12.891Z,101465.35
2022-08-10T05:49:43.683Z,101465.70
2022-08-10T05:52:11.489Z,101465.98
2022-08-10T05:54:42.636Z,101468.09
2022-08-10T05:57:12.713Z,101468.98
2022-08-10T06:00:32.953Z,101466.52
2022-08-10T06:03:17.066Z,101469.55
2022-08-10T06:06:02.100Z,101470.69
2022-08-10T06:08:48.464Z,101475.21
2022-08-10T06:12:25.620Z,101470.72
2022-08-10T06:14:44.248Z,101469.25
2022-08-10T06:17:31.797Z,101469.27
2022-08-10T06:20:25.404Z,101473.60
2022-08-10T06:23:13.090Z,101474.33
2022-08-10T06:26:26.744Z,101472.96
2022-08-10T06:29:12.306Z,101471.46
2022-08-10T06:32:02.742Z,101474.41
2022-08-10T06:35:02.047Z,101479.38
2022-08-10T06:37:51.500Z,101478.15
2022-08-10T06:40:27.227Z,101477.79
2022-08-10T06:43:13.917Z,101475.14
2022-08-10T06:46:07.957Z,101475.27
2022-08-10T06:49:39.084Z,101469.56
2022-08-10T06:52:32.965Z,101469.02
2022-08-10T06:55:05.236Z,101466.29
2022-08-10T06:57:59.824Z,101463.23
2022-08-10T07:00:37.953Z,101457.25
2022-08-10T07:03:36.336Z,101461.50
2022-08-10T07:06:15.880Z,101455.88
2022-08-10T07:08:52.653Z,101454.85
2022-08-10T07:11:41.319Z,101455.41
2022-08-10T07:14:25.229Z,101458.20
2022-08-10T07:17:06.139Z,101458.76
2022-08-10T07:19:57.640Z,101458.23
2022-08-10T07:23:50.720Z,101459.20
2022-08-10T07:25:57.016Z,101459.60
2022-08-10T07:28:28.825Z,101458.99
2022-08-10T07:31:55.099Z,101458.16
2022-08-10T07:34:29.754Z,101459.95
2022-08-10T07:37:02.906Z,101460.10
2022-08-10T07:40:02.261Z,101457.25
2022-08-10T07:42:54.584Z,101462.46
2022-08-10T07:45:33.991Z,101463.26
2022-08-10T07:48:08.327Z,101461.98
2022-08-10T07:50:59.055Z,101462.34
2022-08-10T07:53:44.698Z,101463.65
2022-08-10T07:56:47.914Z,101459.96
2022-08-10T07:59:48.642Z,101461.88
2022-08-10T08:02:28.926Z,101469.88
2022-08-10T08:05:27.543Z,101465.45
2022-08-10T08:08:23.616Z,101470.42
2022-08-10T08:11:25.929Z,101467.16
2022-08-10T08:14:03.767Z,101464.71
2022-08-10T08:16:44.345Z,101464.73
2022-08-10T08:19:35.898Z,101461.95
2022-08-10T08:24:08.089Z,101459.23
2022-08-10T08:25:23.760Z,101453.25
2022-08-10T08:28:15.447Z,101451.93
2022-08-10T08:30:56.036Z,101451.94
2022-08-10T08:33:41.105Z,101453.34
2022-08-10T08:36:47.204Z,101452.56
2022-08-10T08:39:29.536Z,101447.50
2022-08-10T08:42:33.449Z,101448.91
2022-08-10T08:45:35.017Z,101448.98
2022-08-10T08:48:33.489Z,101450.43
2022-08-10T08:52:09.293Z,101446.35
2022-08-10T08:54:33.003Z,101441.79
2022-08-10T08:57:49.203Z,101440.77
2022-08-10T09:00:41.635Z,101444.75
2022-08-10T09:03:49.727Z,101446.63
2022-08-10T09:06:41.821Z,101438.27
2022-08-10T09:09:50.742Z,101436.77
2022-08-10T09:12:46.285Z,101428.34
2022-08-10T09:15:40.611Z,101427.98
2022-08-10T09:18:28.752Z,101430.03
2022-08-10T09:21:16.557Z,101424.55
2022-08-10T09:24:26.328Z,101430.52
2022-08-10T09:27:21.334Z,101425.30
2022-08-10T09:30:32.164Z,101424.36
2022-08-10T09:36:24.248Z,101424.50
2022-08-10T09:37:03.200Z,101425.41
2022-08-10T09:40:56.143Z,101421.20
2022-08-10T09:43:39.005Z,101420.45
2022-08-10T09:46:34.454Z,101419.72
2022-08-10T09:50:04.445Z,101418.94
2022-08-10T09:53:00.303Z,101416.00
2022-08-10T09:56:19.336Z,101414.17
2022-08-10T10:00:00.337Z,101413.77
2022-08-10T10:02:53.680Z,101407.46
2022-08-10T10:06:16.618Z,101410.70
2022-08-10T10:09:09.779Z,101402.19
2022-08-10T10:12:09.331Z,101398.73
2022-08-10T10:15:24.843Z,101400.05
2022-08-10T10:18:14.447Z,101397.73
2022-08-10T10:21:01.663Z,101392.34
2022-08-10T10:24:21.109Z,101393.80
2022-08-10T10:27:28.146Z,101390.77
2022-08-10T10:30:22.491Z,101386.32
2022-08-10T10:33:19.286Z,101386.16
2022-08-10T10:36:08.579Z,101388.04
2022-08-10T10:38:57.058Z,101387.40
2022-08-10T10:42:04.376Z,101380.36
2022-08-10T10:45:41.656Z,101375.34
2022-08-10T10:48:44.621Z,101375.03
2022-08-10T10:52:11.255Z,101372.77
2022-08-10T10:54:48.379Z,101369.11
2022-08-10T10:57:58.562Z,101364.63
2022-08-10T11:01:00.084Z,101362.64
2022-08-10T11:04:00.288Z,101358.87
2022-08-10T11:07:00.500Z,101350.88
2022-08-10T11:10:05.637Z,101348.40
2022-08-10T11:14:24.651Z,101344.52
2022-08-10T11:16:37.023Z,101342.95
2022-08-10T11:19:17.475Z,101339.52
2022-08-10T11:22:04.905Z,101339.54
2022-08-10T11:24:58.372Z,101342.95
2022-08-10T11:27:49.348Z,101337.66
2022-08-10T11:30:36.676Z,101333.23
2022-08-10T11:34:04.100Z,101326.58
2022-08-10T11:36:50.151Z,101334.14
2022-08-10T11:39:49.294Z,101328.42
2022-08-10T11:42:43.939Z,101335.02
2022-08-10T11:45:52.412Z,101336.68
2022-08-10T11:48:54.129Z,101335.21
2022-08-10T11:51:44.124Z,101327.95
2022-08-10T11:54:18.285Z,101325.56
2022-08-10T11:57:02.204Z,101331.58
2022-08-10T11:59:59.439Z,101329.86
2022-08-10T12:02:59.272Z,101322.88
2022-08-10T12:06:14.358Z,101323.19
2022-08-10T12:10:10.024Z,101322.22
2022-08-10T12:12:26.430Z,101313.93
2022-08-10T12:15:06.922Z,101315.78
2022-08-10T12:18:05.009Z,101316.08
2022-08-10T12:20:52.614Z,101308.80
2022-08-10T12:24:03.163Z,101303.73
2022-08-10T12:27:18.585Z,101296.60
2022-08-10T12:30:03.213Z,101300.11
2022-08-10T12:32:48.832Z,101294.34
2022-08-10T12:36:18.329Z,101293.64
2022-08-10T12:39:10.267Z,101290.80
2022-08-10T12:41:55.143Z,101288.30
2022-08-10T12:44:45.840Z,101287.95
2022-08-10T12:47:53.607Z,101283.48
2022-08-10T12:50:39.768Z,101281.92
2022-08-10T12:53:52.635Z,101280.91
2022-08-10T12:56:47.723Z,101273.52
2022-08-10T12:59:28.833Z,101269.91
2022-08-10T13:02:24.490Z,101264.66
2022-08-10T13:05:11.292Z,101263.65
2022-08-10T13:12:38.549Z,101266.80
2022-08-10T13:14:47.676Z,101257.17
2022-08-10T13:17:42.913Z,101259.39
2022-08-10T13:20:20.858Z,101258.31
2022-08-10T13:23:24.262Z,101260.80
2022-08-10T13:26:08.642Z,101263.46
2022-08-10T13:29:12.881Z,101262.99
2022-08-10T13:32:10.114Z,101263.06
2022-08-10T13:35:07.533Z,101261.33
2022-08-10T13:37:54.511Z,101257.88
2022-08-10T13:40:50.034Z,101260.10
2022-08-10T13:43:48.790Z,101265.16
2022-08-10T13:46:35.806Z,101263.92
2022-08-10T13:49:34.963Z,101256.77
2022-08-10T13:52:11.813Z,101249.64
2022-08-10T13:54:57.168Z,101249.18
2022-08-10T13:57:47.665Z,101242.73
2022-08-10T14:01:21.951Z,101242.16
2022-08-10T14:04:11.290Z,101237.99
2022-08-10T14:07:15.595Z,101235.58
2022-08-10T14:10:18.324Z,101236.00
2022-08-10T14:13:20.570Z,101237.89
2022-08-10T14:16:00.218Z,101232.61
2022-08-10T14:18:28.705Z,101230.68
2022-08-10T14:21:14.879Z,101226.39
2022-08-10T14:23:59.791Z,101228.21
2022-08-10T14:27:27.560Z,101231.39
2022-08-10T14:30:40.396Z,101235.32
2022-08-10T14:33:26.394Z,101234.05
2022-08-10T14:36:22.520Z,101231.94
2022-08-10T14:39:13.068Z,101226.95
2022-08-10T14:42:02.943Z,101231.67
2022-08-10T14:45:38.596Z,101234.23
2022-08-10T14:48:31.744Z,101238.79
2022-08-10T14:51:44.168Z,101236.73
2022-08-10T14:54:28.228Z,101234.44
2022-08-10T14:57:12.119Z,101237.71
2022-08-10T15:00:22.569Z,101241.66
2022-08-10T15:03:10.808Z,101239.31
2022-08-10T15:06:17.969Z,101235.36
2022-08-10T15:08:50.191Z,101235.02
2022-08-10T15:12:15.712Z,101235.38
2022-08-10T15:14:45.625Z,101235.02
2022-08-10T15:17:42.917Z,101233.58
2022-08-10T15:20:51.657Z,101225.11
2022-08-10T15:24:05.147Z,101224.40
2022-08-10T15:26:57.516Z,101224.96
2022-08-10T15:30:00.970Z,101224.98
2022-08-10T15:34:02.231Z,101221.73
2022-08-10T15:36:47.782Z,101218.31
2022-08-10T15:40:21.767Z,101219.05
2022-08-10T15:42:59.188Z,101213.65
2022-08-10T15:45:28.120Z,101212.23
2022-08-10T15:48:21.438Z,101213.13
2022-08-10T15:51:54.122Z,101211.48
2022-08-10T15:54:58.174Z,101204.61
2022-08-10T15:57:48.578Z,101204.74
2022-08-10T16:00:23.473Z,101204.70
2022-08-10T16:03:21.992Z,101205.94
2022-08-10T16:06:04.063Z,101202.71
2022-08-10T16:08:56.652Z,101203.44
2022-08-10T16:11:43.977Z,101205.45
2022-08-10T16:14:37.730Z,101202.04
2022-08-10T16:17:24.683Z,101208.34
2022-08-10T16:20:05.402Z,101200.97
2022-08-10T16:22:43.583Z,101205.67
2022-08-10T16:25:23.724Z,101204.63
2022-08-10T16:28:35.157Z,101205.53
2022-08-10T16:31:15.802Z,101205.38
2022-08-10T16:33:53.826Z,101203.02
2022-08-10T16:36:51.043Z,101201.98
2022-08-10T16:39:59.650Z,101207.02
2022-08-10T16:42:37.922Z,101204.88
2022-08-10T16:45:27.125Z,101203.83
2022-08-10T16:48:02.492Z,101207.06
2022-08-10T16:50:54.206Z,101210.13
2022-08-10T16:53:26.365Z,101208.89
2022-08-10T16:56:02.025Z,101209.79
2022-08-10T16:58:46.854Z,101207.98
2022-08-10T17:01:38.234Z,101204.04
2022-08-10T17:04:18.847Z,101208.35
2022-08-10T17:07:14.779Z,101201.48
2022-08-10T17:10:08.506Z,101207.08
2022-08-10T17:12:41.841Z,101206.71
2022-08-10T17:15:26.720Z,101203.83
2022-08-10T17:18:05.055Z,101205.81
2022-08-10T17:21:12.314Z,101204.90
2022-08-10T17:23:54.028Z,101205.26
2022-08-10T17:26:38.344Z,101203.27
2022-08-10T17:29:59.010Z,101206.52
2022-08-10T17:32:51.933Z,101203.46
2022-08-10T17:35:26.305Z,101202.74
2022-08-10T17:38:03.842Z,101204.35
2022-08-10T17:40:55.126Z,101205.23
2022-08-10T17:44:00.918Z,101203.08
2022-08-10T17:46:49.538Z,101205.05
2022-08-10T17:49:55.620Z,101204.31
2022-08-10T17:52:42.459Z,101204.66
2022-08-10T17:55:30.617Z,101211.65
2022-08-10T17:58:19.661Z,101213.96
2022-08-10T18:01:38.456Z,101215.36
2022-08-10T18:04:13.338Z,101212.47
2022-08-10T18:07:08.783Z,101215.31
2022-08-10T18:09:53.131Z,101219.40
2022-08-10T18:12:38.940Z,101220.45
2022-08-10T18:15:38.319Z,101224.55
2022-08-10T18:18:31.082Z,101228.63
2022-08-10T18:21:34.945Z,101226.98
2022-08-10T18:24:23.768Z,101229.08
2022-08-10T18:27:22.958Z,101229.41
2022-08-10T18:30:33.082Z,101230.98
2022-08-10T18:33:17.131Z,101233.42
2022-08-10T18:36:06.025Z,101237.10
2022-08-10T18:39:07.709Z,101237.77
2022-08-10T18:42:02.413Z,101238.23
2022-08-10T18:44:44.403Z,101238.18
2022-08-10T18:47:42.028Z,101238.33
2022-08-10T18:50:52.889Z,101241.14
2022-08-10T18:53:51.887Z,101239.98
2022-08-10T18:57:24.512Z,101244.39
2022-08-10T19:00:47.021Z,101247.91
2022-08-10T19:03:29.695Z,101251.80
2022-08-10T19:06:20.815Z,101250.33
2022-08-10T19:09:41.459Z,101248.70
2022-08-10T19:12:36.417Z,101254.04
2022-08-10T19:15:43.907Z,101261.20
2022-08-10T19:18:36.180Z,101263.17
2022-08-10T19:22:05.176Z,101260.83
2022-08-10T19:25:08.054Z,101264.53
2022-08-10T19:28:56.642Z,101260.74
2022-08-10T19:31:52.290Z,101264.68
2022-08-10T19:34:57.290Z,101263.02
2022-08-10T19:38:00.650Z,101263.55
2022-08-10T19:41:09.862Z,101261.92
2022-08-10T19:44:33.760Z,101261.52
2022-08-10T19:47:49.225Z,101261.64
2022-08-10T19:50:49.406Z,101257.23
2022-08-10T19:54:01.480Z,101260.40
2022-08-10T19:56:49.527Z,101258.71
2022-08-10T20:00:15.952Z,101259.48
2022-08-10T20:04:00.257Z,101260.27
2022-08-10T20:07:09.318Z,101261.30
2022-08-10T20:10:24.489Z,101263.73
2022-08-10T20:14:23.106Z,101263.30
2022-08-10T20:17:51.436Z,101265.02
2022-08-10T20:34:40.157Z,101258.36
2022-08-10T20:43:40.615Z,101256.98
2022-08-10T20:48:18.243Z,101256.01
2022-08-10T20:55:14.587Z,101260.11
2022-08-10T20:58:11.041Z,101263.25
2022-08-10T21:01:14.389Z,101257.95
2022-08-10T21:04:29.776Z,101261.77
2022-08-10T21:07:28.363Z,101262.89
2022-08-10T21:10:38.305Z,101255.99
2022-08-10T21:13:35.285Z,101251.86
2022-08-10T21:16:43.046Z,101250.89
2022-08-10T21:19:58.631Z,101247.19
2022-08-10T21:22:50.807Z,101250.45
2022-08-10T21:25:32.376Z,101250.19
2022-08-10T21:28:29.192Z,101250.77
2022-08-10T21:31:21.782Z,101251.16
2022-08-10T21:34:31.832Z,101252.06
2022-08-10T21:37:39.774Z,101256.34
2022-08-10T21:40:34.735Z,101252.69
2022-08-10T21:43:48.194Z,101248.55
2022-08-10T21:46:55.153Z,101247.52
2022-08-10T21:50:08.615Z,101247.94
2022-08-10T21:53:43.739Z,101246.45
2022-08-10T21:57:20.733Z,101251.02
2022-08-10T22:03:49.459Z,101253.14
2022-08-10T22:06:55.335Z,101254.04
2022-08-10T22:09:54.872Z,101257.70
2022-08-10T22:12:56.285Z,101259.29
2022-08-10T22:16:11.993Z,101257.13
2022-08-10T22:19:21.176Z,101259.73
2022-08-10T22:22:30.210Z,101259.48
2022-08-10T22:25:52.073Z,101257.44
2022-08-10T22:28:40.819Z,101246.43
2022-08-10T22:31:55.215Z,101246.91
2022-08-10T22:35:09.487Z,101247.36
2022-08-10T22:38:34.156Z,101240.79
2022-08-10T22:41:49.137Z,101242.77
2022-08-10T22:44:48.223Z,101242.80
2022-08-10T22:47:49.402Z,101245.00
2022-08-10T22:50:32.675Z,101240.36
2022-08-10T22:53:15.345Z,101239.77
2022-08-10T22:56:41.123Z,101235.47
2022-08-10T22:59:39.348Z,101232.91
2022-08-10T23:02:22.464Z,101231.65
2022-08-10T23:05:07.519Z,101230.03
2022-08-10T23:08:03.865Z,101227.16
2022-08-10T23:10:54.291Z,101230.33
2022-08-10T23:13:53.982Z,101229.52
2022-08-10T23:16:59.801Z,101226.98
2022-08-10T23:20:09.628Z,101230.88
2022-08-10T23:22:50.511Z,101232.92
2022-08-10T23:25:30.103Z,101228.86
2022-08-10T23:28:39.119Z,101231.29
2022-08-10T23:32:00.668Z,101230.41
2022-08-10T23:34:36.925Z,101229.85
2022-08-10T23:37:21.263Z,101227.17
2022-08-10T23:39:54.634Z,101229.70
2022-08-10T23:42:40.077Z,101229.84
2022-08-10T23:45:53.384Z,101227.85
2022-08-10T23:48:30.378Z,101231.55
2022-08-10T23:51:25.728Z,101225.89
2022-08-10T23:54:16.637Z,101226.97
2022-08-10T23:57:01.114Z,101226.44
2022-08-10T23:59:41.517Z,101226.07
